Brandon, Minnesota
Current Conditions -  °F | °C
As of 1:18 PM on Monday 22 Dec 2014 (Local Time) from KAXN Reporting Station
Overcast Overcast  
Wind Chill: 26°   Ceiling: 500
Heat Index: 35°   Visibility: 7mi
Dew Point: 33°   Wind: 14mph
Humidity: 92%   Direction: 130°SE
Pressure: 29.51"   Gusts: NA
Location:  45.97°N, 95.6°W
Report Text: KAXN 221918Z AUTO 13012KT 7SM OVC005 02/01 A2951 RMK AO2 T00170006
Loading
Personal Weather Stations






























Interactive Weather Map New forecast layout! Learn more

10-Day Weather Forecast

Advertisements
Track Severe Weather on mobile